Home > Products > Valid Products > TAF

000
FTUS43 KILX 030520
TAFPIA
TAF
KPIA 030520Z 0306/0406 04005KT P6SM SCT030 BKN250
     FM031500 05006KT P6SM SCT025 BKN040
     FM032000 04006KT P6SM SCT045
     FM040100 VRB03KT P6SM SKC=



000
FTUS43 KILX 030520
TAFCMI
TAF
KCMI 030520Z 0306/0406 03008KT P6SM SCT035 BKN250
     FM030800 04008KT 6SM BR VCSH SCT012 OVC025
     FM031600 04009KT P6SM SCT015 BKN030
     FM032100 05009KT P6SM BKN035
     FM040200 03005KT P6SM SCT040=



000
FTUS43 KILX 030520
TAFBMI
TAF
KBMI 030520Z 0306/0406 04009KT P6SM SCT030 BKN250
     FM030900 04007KT P6SM SCT015 OVC030
     FM031500 05009KT P6SM SCT025 BKN035
     FM032100 04009KT P6SM SCT040
     FM040200 04005KT P6SM SKC=



000
FTUS43 KILX 030520
TAFPIA
TAF
KPIA 030520Z 0306/0406 04005KT P6SM SCT030 BKN250
     FM031500 05006KT P6SM SCT025 BKN040
     FM032000 04006KT P6SM SCT045
     FM040100 VRB03KT P6SM SKC=



000
FTUS43 KILX 030520
TAFCMI
TAF
KCMI 030520Z 0306/0406 03008KT P6SM SCT035 BKN250
     FM030800 04008KT 6SM BR VCSH SCT012 OVC025
     FM031600 04009KT P6SM SCT015 BKN030
     FM032100 05009KT P6SM BKN035
     FM040200 03005KT P6SM SCT040=



000
FTUS43 KILX 030520
TAFBMI
TAF
KBMI 030520Z 0306/0406 04009KT P6SM SCT030 BKN250
     FM030900 04007KT P6SM SCT015 OVC030
     FM031500 05009KT P6SM SCT025 BKN035
     FM032100 04009KT P6SM SCT040
     FM040200 04005KT P6SM SKC=



000
FTUS43 KILX 030520
TAFDEC
TAF
KDEC 030520Z 0306/0406 02006KT P6SM SCT035 BKN150
     FM030900 03006KT P6SM SCT015 OVC030
     FM031600 03007KT P6SM BKN035
     FM032000 04007KT P6SM BKN045
     FM040200 03005KT P6SM SCT050=



000
FTUS43 KILX 030520
TAFSPI
TAF
KSPI 030520Z 0306/0406 02006KT P6SM SCT035 BKN150
     FM030900 03006KT P6SM SCT015 OVC030
     FM031500 03007KT P6SM BKN035
     FM031900 04007KT P6SM BKN045
     FM040100 03005KT P6SM SCT050=



000
FTUS43 KILX 030520
TAFSPI
TAF
KSPI 030520Z 0306/0406 02006KT P6SM SCT035 BKN150
     FM030900 03006KT P6SM SCT015 OVC030
     FM031500 03007KT P6SM BKN035
     FM031900 04007KT P6SM BKN045
     FM040100 03005KT P6SM SCT050=



000
FTUS43 KILX 030520
TAFDEC
TAF
KDEC 030520Z 0306/0406 02006KT P6SM SCT035 BKN150
     FM030900 03006KT P6SM SCT015 OVC030
     FM031600 03007KT P6SM BKN035
     FM032000 04007KT P6SM BKN045
     FM040200 03005KT P6SM SCT050=



000
FTUS43 KILX 030411 AAA
TAFCMI
TAF AMD
KCMI 030411Z 0304/0324 03008KT P6SM SCT035 BKN250
     FM030800 04008KT 6SM BR SCT012 OVC025
     FM031600 04009KT P6SM SCT025 BKN040=



000
FTUS43 KILX 030409 AAA
TAFDEC
TAF AMD
KDEC 030409Z 0304/0324 02006KT P6SM SCT035 BKN250
     FM030900 03008KT 6SM BR SCT015 OVC025
     FM031600 03007KT P6SM SCT012 BKN035
     FM032000 04007KT P6SM BKN040=



000
FTUS43 KILX 030408 AAA
TAFBMI
TAF AMD
KBMI 030408Z 0304/0324 04009KT P6SM SCT025 BKN250
     FM030900 04007KT P6SM SCT015 OVC030
     FM031500 05009KT P6SM SCT025 BKN035
     FM032000 04009KT P6SM SCT040=



000
FTUS43 KILX 022338
TAFSPI
TAF
KSPI 022338Z 0300/0324 04007KT P6SM SCT035 BKN250
     FM030500 02006KT P6SM SCT015 OVC030
     FM031500 03007KT P6SM SCT015 BKN035
     FM031900 04007KT P6SM BKN040=



000
FTUS43 KILX 022338
TAFBMI
TAF
KBMI 022338Z 0300/0324 05011KT P6SM SCT035 BKN250
     FM030400 04009KT P6SM BKN025
     FM031500 05009KT P6SM SCT025 BKN035
     FM032000 04009KT P6SM SCT040=



000
FTUS43 KILX 022338
TAFDEC
TAF
KDEC 022338Z 0300/0324 04007KT P6SM SCT035 BKN250
     FM030400 02006KT 6SM BR SCT012 OVC030
     FM031600 03007KT P6SM SCT012 BKN035
     FM032000 04007KT P6SM BKN040=



000
FTUS43 KILX 022338
TAFPIA
TAF
KPIA 022338Z 0300/0324 05006KT P6SM SCT035 BKN250
     FM030600 04005KT P6SM BKN030
     FM031500 05006KT P6SM SCT025 BKN040
     FM032000 04006KT P6SM SCT050=



000
FTUS43 KILX 022338
TAFCMI
TAF
KCMI 022338Z 0300/0324 04010KT P6SM SCT035 BKN250
     FM030300 03008KT P6SM SCT012 BKN030
     FM030700 05007KT 5SM BR OVC025
     FM031600 04009KT P6SM SCT025 BKN040=



000
FTUS43 KILX 022151 AAB
TAFCMI
TAF AMD
KCMI 022151Z 0222/0318 04010KT P6SM SCT035 BKN250
     FM030300 03008KT P6SM BKN030
     FM031500 04009KT P6SM SCT025 BKN040=



000
FTUS43 KILX 022150 AAA
TAFDEC
TAF AMD
KDEC 022150Z 0222/0318 04009KT P6SM SCT035 BKN200
     FM030000 03007KT P6SM SCT040 BKN120
     FM030300 02005KT P6SM BKN030
     FM031500 03007KT P6SM SCT025 BKN040=



000
FTUS43 KILX 022149 AAA
TAFBMI
TAF AMD
KBMI 022149Z 0222/0318 05011KT P6SM SCT025 BKN250
     FM030300 04007KT P6SM BKN025
     FM031500 05009KT P6SM SCT025 BKN035=



000
FTUS43 KILX 022149 AAA
TAFPIA
TAF AMD
KPIA 022149Z 0222/0318 06008KT P6SM SCT030 BKN250
     FM030000 05006KT P6SM SCT035 BKN250
     FM030600 04005KT P6SM BKN030
     FM031500 05006KT P6SM SCT025 BKN040=



000
FTUS43 KILX 022149 AAA
TAFPIA
TAF AMD
KPIA 022149Z 0222/0318 06008KT P6SM SCT030 BKN250
     FM030000 05006KT P6SM SCT035 BKN250
     FM030600 04005KT P6SM BKN030
     FM031500 05006KT P6SM SCT025 BKN040=



000
FTUS43 KILX 022149 AAA
TAFSPI
TAF AMD
KSPI 022149Z 0222/0318 04009KT P6SM SCT035 BKN200
     FM030100 03006KT P6SM SCT040 BKN120
     FM030500 02006KT P6SM BKN030
     FM031500 03007KT P6SM SCT025 BKN040=



000
FTUS43 KILX 021830 AAA
TAFCMI
TAF AMD
KCMI 021830Z 0219/0318 04010KT P6SM SCT025 BKN250
      TEMPO 0219/0221 BKN025
     FM022100 04010KT P6SM SCT035 BKN250
      TEMPO 0221/0224 BKN030
     FM030000 03008KT P6SM BKN030
     FM031500 04009KT P6SM SCT025 BKN040=



000
FTUS43 KILX 021732
TAFSPI
TAF
KSPI 021732Z 0218/0318 06011KT P6SM SCT025 BKN200
      TEMPO 0218/0220 BKN025
     FM022000 04009KT P6SM SCT035 BKN200
      TEMPO 0220/0223 BKN030
     FM030100 03006KT P6SM SCT040 BKN120
     FM030500 02006KT P6SM BKN030
     FM031500 03007KT P6SM SCT025 BKN040=



000
FTUS43 KILX 021732
TAFDEC
TAF
KDEC 021732Z 0218/0318 04011KT P6SM SCT025 BKN200
      TEMPO 0218/0220 BKN025
     FM022000 04009KT P6SM SCT035 BKN200
      TEMPO 0220/0223 BKN030
     FM030000 03007KT P6SM SCT040 BKN120
     FM030300 02005KT P6SM BKN030
     FM031500 03007KT P6SM SCT025 BKN040=



000
FTUS43 KILX 021732
TAFBMI
TAF
KBMI 021732Z 0218/0318 06013KT P6SM SCT020 BKN250
      TEMPO 0218/0220 BKN018
     FM022000 05011KT P6SM SCT025 BKN250
      TEMPO 0220/0223 BKN025
     FM030300 04007KT P6SM BKN025
     FM031500 05009KT P6SM SCT025 BKN035=



000
FTUS43 KILX 021732
TAFCMI
TAF
KCMI 021732Z 0218/0318 05012KT P6SM SCT025 BKN250
      TEMPO 0218/0220 BKN025
     FM022000 04010KT P6SM SCT035 BKN250
      TEMPO 0220/0224 BKN030
     FM030000 03008KT P6SM BKN030
     FM031500 04009KT P6SM SCT025 BKN040=



000
FTUS43 KILX 021732
TAFSPI
TAF
KSPI 021732Z 0218/0318 06011KT P6SM SCT025 BKN200
      TEMPO 0218/0220 BKN025
     FM022000 04009KT P6SM SCT035 BKN200
      TEMPO 0220/0223 BKN030
     FM030100 03006KT P6SM SCT040 BKN120
     FM030500 02006KT P6SM BKN030
     FM031500 03007KT P6SM SCT025 BKN040=



000
FTUS43 KILX 021732
TAFDEC
TAF
KDEC 021732Z 0218/0318 04011KT P6SM SCT025 BKN200
      TEMPO 0218/0220 BKN025
     FM022000 04009KT P6SM SCT035 BKN200
      TEMPO 0220/0223 BKN030
     FM030000 03007KT P6SM SCT040 BKN120
     FM030300 02005KT P6SM BKN030
     FM031500 03007KT P6SM SCT025 BKN040=



000
FTUS43 KILX 021732
TAFPIA
TAF
KPIA 021732Z 0218/0318 05010G15KT P6SM SCT020 BKN250
      TEMPO 0218/0220 BKN019
     FM022000 06008KT P6SM SCT030 BKN250
      TEMPO 0220/0222 BKN025
     FM030000 05006KT P6SM SCT035 BKN250
     FM030600 04005KT P6SM BKN030
     FM031500 05006KT P6SM SCT025 BKN040=



000
FTUS43 KILX 021732
TAFBMI
TAF
KBMI 021732Z 0218/0318 06013KT P6SM SCT020 BKN250
      TEMPO 0218/0220 BKN018
     FM022000 05011KT P6SM SCT025 BKN250
      TEMPO 0220/0223 BKN025
     FM030300 04007KT P6SM BKN025
     FM031500 05009KT P6SM SCT025 BKN035=



000
FTUS43 KILX 021732
TAFPIA
TAF
KPIA 021732Z 0218/0318 05010G15KT P6SM SCT020 BKN250
      TEMPO 0218/0220 BKN019
     FM022000 06008KT P6SM SCT030 BKN250
      TEMPO 0220/0222 BKN025
     FM030000 05006KT P6SM SCT035 BKN250
     FM030600 04005KT P6SM BKN030
     FM031500 05006KT P6SM SCT025 BKN040=



000
FTUS43 KILX 021732
TAFCMI
TAF
KCMI 021732Z 0218/0318 05012KT P6SM SCT025 BKN250
      TEMPO 0218/0220 BKN025
     FM022000 04010KT P6SM SCT035 BKN250
      TEMPO 0220/0224 BKN030
     FM030000 03008KT P6SM BKN030
     FM031500 04009KT P6SM SCT025 BKN040=



000
FTUS43 KILX 021709 AAB
TAFBMI
TAF AMD
KBMI 021709Z 0217/0312 06013KT P6SM SCT020 BKN200
      TEMPO 0217/0220 BKN018
     FM022000 05011KT P6SM SCT030 BKN200
     FM030300 04007KT P6SM OVC025=



000
FTUS43 KILX 021709 AAB
TAFBMI
TAF AMD
KBMI 021709Z 0217/0312 06013KT P6SM SCT020 BKN200
      TEMPO 0217/0220 BKN018
     FM022000 05011KT P6SM SCT030 BKN200
     FM030300 04007KT P6SM OVC025=



000
FTUS43 KILX 021706 AAA
TAFDEC
TAF AMD
KDEC 021706Z 0217/0312 04011KT P6SM SCT025 BKN200
      TEMPO 0218/0220 BKN025
     FM022000 04008KT P6SM SCT050
     FM030100 02005KT P6SM SCT250
     FM030300 04008KT P6SM OVC025=



000
FTUS43 KILX 021706 AAA
TAFDEC
TAF AMD
KDEC 021706Z 0217/0312 04011KT P6SM SCT025 BKN200
      TEMPO 0218/0220 BKN025
     FM022000 04008KT P6SM SCT050
     FM030100 02005KT P6SM SCT250
     FM030300 04008KT P6SM OVC025=



000
FTUS43 KILX 021637 AAA
TAFPIA
TAF AMD
KPIA 021637Z 0217/0312 05010G15KT P6SM SCT015 BKN200
      TEMPO 0217/0219 BKN015
     FM021900 06011KT P6SM SCT025 BKN050
     FM022100 05010KT P6SM SCT050
     FM030600 04007KT P6SM OVC025=



000
FTUS43 KILX 021531 AAA
TAFBMI
TAF AMD
KBMI 021531Z 0216/0312 06013KT P6SM SCT015 BKN200
      TEMPO 0216/0218 BKN013
     FM021800 06012KT P6SM SCT020 BKN050
     FM022000 05011KT P6SM SCT050
     FM030300 04007KT P6SM OVC025=



000
FTUS43 KILX 021149
TAFSPI
TAF
KSPI 021149Z 0212/0312 06011KT P6SM SCT025 BKN050
      TEMPO 0212/0214 BKN025
     FM022100 04008KT P6SM SCT050
     FM030100 02005KT P6SM SCT250
     FM030600 03006KT P6SM OVC025=



000
FTUS43 KILX 021149
TAFBMI
TAF
KBMI 021149Z 0212/0312 06012KT P6SM SCT004 SCT100
      TEMPO 0212/0215 3SM BR BKN004
     FM021500 06012KT P6SM SCT012 BKN050
     FM021900 05011KT P6SM SCT050
     FM030300 04007KT P6SM OVC025=



000
FTUS43 KILX 021149
TAFDEC
TAF
KDEC 021149Z 0212/0312 06012KT P6SM SCT025 BKN050
      TEMPO 0212/0214 BKN025
     FM022000 04008KT P6SM SCT050
     FM030100 02005KT P6SM SCT250
     FM030300 04008KT P6SM OVC025=



000
FTUS43 KILX 021149
TAFPIA
TAF
KPIA 021149Z 0212/0312 06010KT P6SM SCT100
     FM021500 06011KT P6SM BKN050
     FM022000 05010KT P6SM SCT050
     FM030600 04007KT P6SM OVC025=



000
FTUS43 KILX 021149
TAFCMI
TAF
KCMI 021149Z 0212/0312 05012KT P6SM SCT025 BKN050
     FM021900 04010KT P6SM SCT050
     FM030000 04008KT P6SM OVC025=



000
FTUS43 KILX 020526
TAFCMI
TAF
KCMI 020526Z 0206/0306 05008KT P6SM VCSH SCT025 BKN120
     FM021000 05010KT P6SM BKN025
     FM021600 05012KT P6SM SCT025 BKN100
     FM022100 04012KT P6SM SCT025 BKN050
     FM030200 03009KT P6SM BKN050=



000
FTUS43 KILX 020526
TAFSPI
TAF
KSPI 020526Z 0206/0306 06010KT P6SM VCSH SCT020 OVC045
     FM020900 06009KT P6SM BKN020 OVC045
     FM021400 05010KT P6SM BKN025
     FM021900 03010KT P6SM SCT025 BKN050
     FM030000 03008KT P6SM SCT100 BKN250=



000
FTUS43 KILX 020526
TAFDEC
TAF
KDEC 020526Z 0206/0306 06010KT P6SM VCSH SCT020 OVC045
     FM020900 06009KT P6SM BKN020 OVC045
     FM021500 05010KT P6SM BKN025
     FM022000 03010KT P6SM SCT025 BKN050
     FM030100 03008KT P6SM SCT100 BKN250=



000
FTUS43 KILX 020526
TAFBMI
TAF
KBMI 020526Z 0206/0306 06010KT P6SM VCSH SCT025 BKN080
     FM021000 04010KT 6SM BR BKN035
     FM021500 06013KT P6SM SCT030 BKN250
     FM022100 04012KT P6SM SCT030 BKN100=



000
FTUS43 KILX 020526
TAFPIA
TAF
KPIA 020526Z 0206/0306 06006KT P6SM VCSH SCT025 OVC060
     FM020800 06006KT P6SM BKN035
     FM021400 06010KT P6SM SCT025 BKN120
     FM021900 05009KT P6SM BKN250=



000
FTUS43 KILX 020526
TAFDEC
TAF
KDEC 020526Z 0206/0306 06010KT P6SM VCSH SCT020 OVC045
     FM020900 06009KT P6SM BKN020 OVC045
     FM021500 05010KT P6SM BKN025
     FM022000 03010KT P6SM SCT025 BKN050
     FM030100 03008KT P6SM SCT100 BKN250=



000
FTUS43 KILX 020526
TAFSPI
TAF
KSPI 020526Z 0206/0306 06010KT P6SM VCSH SCT020 OVC045
     FM020900 06009KT P6SM BKN020 OVC045
     FM021400 05010KT P6SM BKN025
     FM021900 03010KT P6SM SCT025 BKN050
     FM030000 03008KT P6SM SCT100 BKN250=



000
FTUS43 KILX 020526
TAFBMI
TAF
KBMI 020526Z 0206/0306 06010KT P6SM VCSH SCT025 BKN080
     FM021000 04010KT 6SM BR BKN035
     FM021500 06013KT P6SM SCT030 BKN250
     FM022100 04012KT P6SM SCT030 BKN100=



000
FTUS43 KILX 020526
TAFPIA
TAF
KPIA 020526Z 0206/0306 06006KT P6SM VCSH SCT025 OVC060
     FM020800 06006KT P6SM BKN035
     FM021400 06010KT P6SM SCT025 BKN120
     FM021900 05009KT P6SM BKN250=



000
FTUS43 KILX 020526
TAFCMI
TAF
KCMI 020526Z 0206/0306 05008KT P6SM VCSH SCT025 BKN120
     FM021000 05010KT P6SM BKN025
     FM021600 05012KT P6SM SCT025 BKN100
     FM022100 04012KT P6SM SCT025 BKN050
     FM030200 03009KT P6SM BKN050=



000
FTUS43 KILX 020217 AAA
TAFCMI
TAF AMD
KCMI 020217Z 0202/0224 05008KT P6SM VCSH SCT025 BKN120
      TEMPO 0202/0204 BKN025
     FM020800 05010KT 5SM BR BKN025
     FM021400 05012KT P6SM BKN025
     FM022100 04012KT P6SM SCT025 BKN050=



000
FTUS43 KILX 020028 AAA
TAFPIA
TAF AMD
KPIA 020028Z 0200/0224 06006KT P6SM VCSH SCT025 BKN080
      TEMPO 0200/0202 BKN025
     FM020800 06006KT 5SM BR BKN025
     FM021400 06008KT P6SM SCT025 BKN120
     FM021900 05010KT P6SM BKN250=



000
FTUS43 KILX 020028 AAA
TAFPIA
TAF AMD
KPIA 020028Z 0200/0224 06006KT P6SM VCSH SCT025 BKN080
      TEMPO 0200/0202 BKN025
     FM020800 06006KT 5SM BR BKN025
     FM021400 06008KT P6SM SCT025 BKN120
     FM021900 05010KT P6SM BKN250=



000
FTUS43 KILX 012331
TAFBMI
TAF
KBMI 012331Z 0200/0224 06010KT P6SM SCT025 BKN120
      TEMPO 0200/0202 BKN025
     FM020200 06010KT P6SM VCSH SCT025 BKN080
     FM021000 04010KT 5SM BR BKN025
     FM021400 05012KT P6SM BKN025
     FM021900 05013KT P6SM SCT030 BKN100=



000
FTUS43 KILX 012331
TAFDEC
TAF
KDEC 012331Z 0200/0224 06008KT P6SM VCSH SCT025 BKN050
      TEMPO 0200/0203 4SM -RA BR OVC025
     FM020700 06007KT 4SM -SHRA BR VCTS BKN025CB
     FM021500 05010KT P6SM VCSH BKN025
     FM022100 03010KT P6SM SCT025 BKN050=



000
FTUS43 KILX 012331
TAFPIA
TAF
KPIA 012331Z 0200/0224 06006KT P6SM VCSH SCT025 BKN080
     FM020800 06006KT 5SM BR BKN025
     FM021400 06008KT P6SM SCT025 BKN120
     FM021900 05010KT P6SM BKN250=



000
FTUS43 KILX 012331
TAFCMI
TAF
KCMI 012331Z 0200/0224 07008KT P6SM SCT025 BKN120
     FM020800 05010KT 5SM BR BKN025
     FM021400 05012KT P6SM BKN025
     FM022100 04012KT P6SM SCT025 BKN050=



000
FTUS43 KILX 012331
TAFSPI
TAF
KSPI 012331Z 0200/0224 06008KT P6SM -SHRA VCTS SCT025CB BKN050
      TEMPO 0200/0203 4SM -RA BR OVC025
     FM020600 06007KT 4SM -SHRA BR VCTS BKN025CB
     FM021400 05010KT P6SM VCSH BKN025
     FM022000 03010KT P6SM SCT025 BKN050=



000
FTUS43 KILX 012150 AAA
TAFBMI
TAF AMD
KBMI 012150Z 0122/0218 08008KT P6SM SCT025 BKN120
      TEMPO 0122/0201 BKN025
     FM020100 07006KT P6SM VCSH BKN025
     FM021000 07006KT 5SM BR BKN025
     FM021400 07008KT P6SM BKN025=



000
FTUS43 KILX 011744
TAFSPI
TAF
KSPI 011744Z 0118/0218 VRB03KT P6SM VCTS SCT025CB BKN120
     FM012200 VRB03KT P6SM -SHRA VCTS BKN025CB
     FM020800 06005KT 4SM -SHRA BR VCTS BKN025CB
     FM021400 06008KT P6SM VCSH BKN025=



000
FTUS43 KILX 011744
TAFDEC
TAF
KDEC 011744Z 0118/0218 VRB03KT 5SM BR VCTS BKN015CB
     FM012000 VRB03KT P6SM VCTS SCT025CB BKN120
     FM012300 VRB03KT P6SM -SHRA VCTS BKN025CB
     FM020800 06005KT 4SM -SHRA BR VCTS BKN025CB
     FM021400 06008KT P6SM VCSH BKN025=



000
FTUS43 KILX 011744
TAFPIA
TAF
KPIA 011744Z 0118/0218 06008KT P6SM SCT035 BKN120
     FM020000 06006KT P6SM VCSH BKN025
     FM020800 06006KT 5SM BR BKN025
     FM021400 06008KT P6SM SCT025 BKN120=



000
FTUS43 KILX 011744
TAFBMI
TAF
KBMI 011744Z 0118/0218 08008KT P6SM SCT035 BKN120
     FM020100 07006KT P6SM VCSH BKN025
     FM021000 07006KT 5SM BR BKN025
     FM021400 07008KT P6SM BKN025=



000
FTUS43 KILX 011744
TAFCMI
TAF
KCMI 011744Z 0118/0218 09006KT P6SM BKN025
     FM012000 08006KT P6SM SCT025 BKN120
     FM020100 06006KT P6SM VCSH BKN025
     FM021000 06006KT 5SM BR BKN025
     FM021400 06008KT P6SM BKN025=



000
FTUS43 KILX 011136
TAFCMI
TAF
KCMI 011136Z 0112/0212 VRB03KT P6SM SCT040 OVC090
      TEMPO 0112/0114 3SM BR BKN040
     FM012100 06008KT P6SM VCTS BKN040CB
     FM020500 06009KT P6SM SCT035 OVC100=



000
FTUS43 KILX 011136
TAFSPI
TAF
KSPI 011136Z 0112/0212 VRB03KT P6SM SCT035 OVC080
      TEMPO 0112/0114 3SM BR BKN035
     FM011900 22006KT P6SM VCTS BKN035CB
     FM020300 07010KT P6SM SCT035 OVC100=



000
FTUS43 KILX 011136
TAFPIA
TAF
KPIA 011136Z 0112/0212 08006KT P6SM SCT040 OVC070
      TEMPO 0112/0114 5SM BR BKN040
     FM020300 07010KT P6SM SCT050 OVC100=



000
FTUS43 KILX 011136
TAFDEC
TAF
KDEC 011136Z 0112/0212 VRB03KT P6SM SCT040 OVC080
      TEMPO 0112/0114 3SM BR BKN040
     FM012000 22006KT P6SM VCTS BKN040CB
     FM020400 07008KT P6SM SCT035 OVC100=



000
FTUS43 KILX 011136
TAFCMI
TAF
KCMI 011136Z 0112/0212 VRB03KT P6SM SCT040 OVC090
      TEMPO 0112/0114 3SM BR BKN040
     FM012100 06008KT P6SM VCTS BKN040CB
     FM020500 06009KT P6SM SCT035 OVC100=



000
FTUS43 KILX 011136
TAFBMI
TAF
KBMI 011136Z 0112/0212 06005KT 3SM BR SCT035 OVC070
      TEMPO 0112/0114 2SM BR BKN035
     FM011500 09006KT P6SM SCT035 OVC070
     FM020300 06010KT P6SM SCT040 OVC100=



000
FTUS43 KILX 011136
TAFDEC
TAF
KDEC 011136Z 0112/0212 VRB03KT P6SM SCT040 OVC080
      TEMPO 0112/0114 3SM BR BKN040
     FM012000 22006KT P6SM VCTS BKN040CB
     FM020400 07008KT P6SM SCT035 OVC100=



000
FTUS43 KILX 011136
TAFBMI
TAF
KBMI 011136Z 0112/0212 06005KT 3SM BR SCT035 OVC070
      TEMPO 0112/0114 2SM BR BKN035
     FM011500 09006KT P6SM SCT035 OVC070
     FM020300 06010KT P6SM SCT040 OVC100=



000
FTUS43 KILX 011136
TAFSPI
TAF
KSPI 011136Z 0112/0212 VRB03KT P6SM SCT035 OVC080
      TEMPO 0112/0114 3SM BR BKN035
     FM011900 22006KT P6SM VCTS BKN035CB
     FM020300 07010KT P6SM SCT035 OVC100=



000
FTUS43 KILX 011136
TAFPIA
TAF
KPIA 011136Z 0112/0212 08006KT P6SM SCT040 OVC070
      TEMPO 0112/0114 5SM BR BKN040
     FM020300 07010KT P6SM SCT050 OVC100=



000
FTUS43 KILX 010800 AAA
TAFCMI
TAF AMD
KCMI 010800Z 0108/0206 04004KT 5SM HZ SCT250
     FM010900 06003KT 4SM BR BKN250
     FM011400 08006KT P6SM BKN045
     FM012200 09006KT P6SM VCSH OVC040=



000
FTUS43 KILX 010539
TAFBMI
TAF
KBMI 010539Z 0106/0206 05005KT 6SM HZ SCT250
     FM010900 08005KT 3SM BR BKN250
     FM011400 09006KT P6SM BKN040
     FM012100 09007KT P6SM OVC040
     FM020200 07008KT P6SM BKN040 OVC100=



000
FTUS43 KILX 010539
TAFBMI
TAF
KBMI 010539Z 0106/0206 05005KT 6SM HZ SCT250
     FM010900 08005KT 3SM BR BKN250
     FM011400 09006KT P6SM BKN040
     FM012100 09007KT P6SM OVC040
     FM020200 07008KT P6SM BKN040 OVC100=



000
FTUS43 KILX 010539
TAFDEC
TAF
KDEC 010539Z 0106/0206 VRB04KT 6SM HZ BKN250
     FM010900 VRB03KT 4SM BR SCT050 BKN250
     FM011400 VRB05KT P6SM VCSH BKN035
     FM012100 23005KT P6SM -SHRA VCTS OVC035CB
     FM020200 09005KT P6SM VCSH OVC045=



000
FTUS43 KILX 010539
TAFSPI
TAF
KSPI 010539Z 0106/0206 32005KT 5SM BR BKN250
     FM010900 VRB03KT 3SM BR SCT050 BKN250
     FM011200 VRB05KT P6SM VCSH BKN035
     FM011900 14005KT P6SM -SHRA VCTS OVC030CB
     FM020100 11005KT P6SM VCSH OVC045=



000
FTUS43 KILX 010539
TAFCMI
TAF
KCMI 010539Z 0106/0206 04004KT 6SM HZ SCT250
     FM010900 06003KT 4SM BR BKN250
     FM011400 08006KT P6SM BKN045
     FM012200 09006KT P6SM VCSH OVC040=



000
FTUS43 KILX 010539
TAFPIA
TAF
KPIA 010539Z 0106/0206 07004KT 6SM HZ BKN250
     FM010900 03003KT 4SM BR SCT100 BKN250
     FM011400 09006KT P6SM BKN040 OVC100
     FM012000 10005KT P6SM SCT040 BKN100
     FM020100 09005KT P6SM BKN045=



000
FTUS43 KILX 010539
TAFDEC
TAF
KDEC 010539Z 0106/0206 VRB04KT 6SM HZ BKN250
     FM010900 VRB03KT 4SM BR SCT050 BKN250
     FM011400 VRB05KT P6SM VCSH BKN035
     FM012100 23005KT P6SM -SHRA VCTS OVC035CB
     FM020200 09005KT P6SM VCSH OVC045=



000
FTUS43 KILX 010539
TAFPIA
TAF
KPIA 010539Z 0106/0206 07004KT 6SM HZ BKN250
     FM010900 03003KT 4SM BR SCT100 BKN250
     FM011400 09006KT P6SM BKN040 OVC100
     FM012000 10005KT P6SM SCT040 BKN100
     FM020100 09005KT P6SM BKN045=



000
FTUS43 KILX 010539
TAFCMI
TAF
KCMI 010539Z 0106/0206 04004KT 6SM HZ SCT250
     FM010900 06003KT 4SM BR BKN250
     FM011400 08006KT P6SM BKN045
     FM012200 09006KT P6SM VCSH OVC040=



000
FTUS43 KILX 010539
TAFSPI
TAF
KSPI 010539Z 0106/0206 32005KT 5SM BR BKN250
     FM010900 VRB03KT 3SM BR SCT050 BKN250
     FM011200 VRB05KT P6SM VCSH BKN035
     FM011900 14005KT P6SM -SHRA VCTS OVC030CB
     FM020100 11005KT P6SM VCSH OVC045=



000
FTUS43 KILX 302339
TAFPIA
TAF
KPIA 302339Z 0100/0124 35003KT P6SM SKC
     FM010900 03003KT 4SM BR BKN250
     FM011400 08006KT P6SM BKN045=



000
FTUS43 KILX 302339
TAFCMI
TAF
KCMI 302339Z 0100/0124 33007KT P6SM SKC
     FM010900 03003KT 4SM BR BKN250
     FM011400 08006KT P6SM BKN040=



000
FTUS43 KILX 302339
TAFDEC
TAF
KDEC 302339Z 0100/0124 33007KT P6SM SKC
     FM010900 VRB03KT 4SM BR BKN250
     FM011300 VRB05KT P6SM SHRA BKN035
     FM012000 23005KT P6SM -SHRA VCTS OVC035CB=



000
FTUS43 KILX 302339
TAFSPI
TAF
KSPI 302339Z 0100/0124 32005KT P6SM SKC
     FM010900 VRB03KT 4SM BR BKN250
     FM011200 VRB05KT P6SM VCSH BKN035
     FM011900 23005KT P6SM -SHRA VCTS OVC030CB=



000
FTUS43 KILX 302339
TAFBMI
TAF
KBMI 302339Z 0100/0124 35008KT P6SM SKC
     FM010900 03003KT 3SM BR BKN250
     FM011400 08006KT P6SM BKN040=



000
FTUS43 KILX 302339
TAFPIA
TAF
KPIA 302339Z 0100/0124 35003KT P6SM SKC
     FM010900 03003KT 4SM BR BKN250
     FM011400 08006KT P6SM BKN045=



000
FTUS43 KILX 302339
TAFDEC
TAF
KDEC 302339Z 0100/0124 33007KT P6SM SKC
     FM010900 VRB03KT 4SM BR BKN250
     FM011300 VRB05KT P6SM SHRA BKN035
     FM012000 23005KT P6SM -SHRA VCTS OVC035CB=



000
FTUS43 KILX 302339
TAFSPI
TAF
KSPI 302339Z 0100/0124 32005KT P6SM SKC
     FM010900 VRB03KT 4SM BR BKN250
     FM011200 VRB05KT P6SM VCSH BKN035
     FM011900 23005KT P6SM -SHRA VCTS OVC030CB=



000
FTUS43 KILX 302339
TAFCMI
TAF
KCMI 302339Z 0100/0124 33007KT P6SM SKC
     FM010900 03003KT 4SM BR BKN250
     FM011400 08006KT P6SM BKN040=



000
FTUS43 KILX 302339
TAFBMI
TAF
KBMI 302339Z 0100/0124 35008KT P6SM SKC
     FM010900 03003KT 3SM BR BKN250
     FM011400 08006KT P6SM BKN040=



000
FTUS43 KILX 301731
TAFPIA
TAF
KPIA 301731Z 3018/0118 32006KT P6SM SCT060
     FM010000 35003KT P6SM SKC
     FM010900 03003KT 3SM BR BKN250
     FM011400 08006KT P6SM BKN035=



000
FTUS43 KILX 301731
TAFSPI
TAF
KSPI 301731Z 3018/0118 26006KT P6SM SCT060
     FM302000 30006KT P6SM SCT060
     FM010000 32003KT P6SM SKC
     FM010900 VRB03KT 3SM BR BKN250
     FM011200 VRB05KT P6SM VCTS BKN025CB=



000
FTUS43 KILX 301731
TAFDEC
TAF
KDEC 301731Z 3018/0118 26006KT P6SM SCT060
     FM302000 30006KT P6SM SCT060
     FM010000 32003KT P6SM SKC
     FM010900 VRB03KT 3SM BR BKN250
     FM011400 VRB05KT P6SM VCTS BKN025CB=



000
FTUS43 KILX 301731
TAFCMI
TAF
KCMI 301731Z 3018/0118 29008KT P6SM SCT060
     FM010000 33005KT P6SM SKC
     FM010900 03003KT 3SM BR BKN250
     FM011400 08006KT P6SM BKN035=



000
FTUS43 KILX 301731
TAFBMI
TAF
KBMI 301731Z 3018/0118 32008KT P6SM SCT060
     FM010000 35003KT P6SM SKC
     FM010900 03003KT 3SM BR BKN250
     FM011400 08006KT P6SM BKN035=



000
FTUS43 KILX 301731
TAFCMI
TAF
KCMI 301731Z 3018/0118 29008KT P6SM SCT060
     FM010000 33005KT P6SM SKC
     FM010900 03003KT 3SM BR BKN250
     FM011400 08006KT P6SM BKN035=



000
FTUS43 KILX 301731
TAFBMI
TAF
KBMI 301731Z 3018/0118 32008KT P6SM SCT060
     FM010000 35003KT P6SM SKC
     FM010900 03003KT 3SM BR BKN250
     FM011400 08006KT P6SM BKN035=



000
FTUS43 KILX 301731
TAFPIA
TAF
KPIA 301731Z 3018/0118 32006KT P6SM SCT060
     FM010000 35003KT P6SM SKC
     FM010900 03003KT 3SM BR BKN250
     FM011400 08006KT P6SM BKN035=



000
FTUS43 KILX 301731
TAFDEC
TAF
KDEC 301731Z 3018/0118 26006KT P6SM SCT060
     FM302000 30006KT P6SM SCT060
     FM010000 32003KT P6SM SKC
     FM010900 VRB03KT 3SM BR BKN250
     FM011400 VRB05KT P6SM VCTS BKN025CB=



000
FTUS43 KILX 301731
TAFSPI
TAF
KSPI 301731Z 3018/0118 26006KT P6SM SCT060
     FM302000 30006KT P6SM SCT060
     FM010000 32003KT P6SM SKC
     FM010900 VRB03KT 3SM BR BKN250
     FM011200 VRB05KT P6SM VCTS BKN025CB=



000
FTUS43 KILX 301120
TAFBMI
TAF
KBMI 301120Z 3012/0112 26007KT P6SM SCT060
      TEMPO 3012/3013 4SM BR
     FM301500 28009KT P6SM SCT050
     FM301800 30012KT P6SM VCTS SCT050CB
     FM010100 36008KT P6SM SCT050
     FM010800 VRB05KT 3SM BR SKC=



000
FTUS43 KILX 301120
TAFBMI
TAF
KBMI 301120Z 3012/0112 26007KT P6SM SCT060
      TEMPO 3012/3013 4SM BR
     FM301500 28009KT P6SM SCT050
     FM301800 30012KT P6SM VCTS SCT050CB
     FM010100 36008KT P6SM SCT050
     FM010800 VRB05KT 3SM BR SKC=



000
FTUS43 KILX 301120
TAFSPI
TAF
KSPI 301120Z 3012/0112 26008KT P6SM SCT060
      TEMPO 3012/3014 4SM BR
     FM301600 28009KT P6SM SCT050
     FM301800 30010KT P6SM VCTS SCT050CB
     FM010000 35006KT P6SM SCT050
     FM010900 VRB03KT 3SM BR SKC=



000
FTUS43 KILX 301120
TAFSPI
TAF
KSPI 301120Z 3012/0112 26008KT P6SM SCT060
      TEMPO 3012/3014 4SM BR
     FM301600 28009KT P6SM SCT050
     FM301800 30010KT P6SM VCTS SCT050CB
     FM010000 35006KT P6SM SCT050
     FM010900 VRB03KT 3SM BR SKC=



000
FTUS43 KILX 301120
TAFDEC
TAF
KDEC 301120Z 3012/0112 26006KT P6SM VCTS SCT040CB BKN100
      TEMPO 3012/3013 3SM -TSRA BR BKN040CB
     FM301400 27009KT P6SM SCT050
     FM301800 30010KT P6SM VCTS SCT050CB
     FM010100 35006KT P6SM SCT050
     FM010900 VRB03KT 3SM BR SKC=



000
FTUS43 KILX 301120
TAFCMI
TAF
KCMI 301120Z 3012/0112 24006KT P6SM SCT050 BKN100
      TEMPO 3012/3014 4SM BR
     FM301500 27009KT P6SM SCT050
     FM301800 29012KT P6SM VCTS SCT050CB
     FM010100 35006KT P6SM SCT050
     FM010900 VRB04KT 3SM BR SKC=



000
FTUS43 KILX 301120
TAFDEC
TAF
KDEC 301120Z 3012/0112 26006KT P6SM VCTS SCT040CB BKN100
      TEMPO 3012/3013 3SM -TSRA BR BKN040CB
     FM301400 27009KT P6SM SCT050
     FM301800 30010KT P6SM VCTS SCT050CB
     FM010100 35006KT P6SM SCT050
     FM010900 VRB03KT 3SM BR SKC=



000
FTUS43 KILX 301120
TAFCMI
TAF
KCMI 301120Z 3012/0112 24006KT P6SM SCT050 BKN100
      TEMPO 3012/3014 4SM BR
     FM301500 27009KT P6SM SCT050
     FM301800 29012KT P6SM VCTS SCT050CB
     FM010100 35006KT P6SM SCT050
     FM010900 VRB04KT 3SM BR SKC=



000
FTUS43 KILX 301120
TAFPIA
TAF
KPIA 301120Z 3012/0112 VRB03KT P6SM SCT060
      TEMPO 3012/3014 3SM BR
     FM301600 27008KT P6SM SCT050
     FM301800 30010KT P6SM VCTS SCT050CB
     FM010000 36005KT P6SM SCT050
     FM010900 VRB04KT 3SM BR SKC=



000
FTUS43 KILX 301120
TAFPIA
TAF
KPIA 301120Z 3012/0112 VRB03KT P6SM SCT060
      TEMPO 3012/3014 3SM BR
     FM301600 27008KT P6SM SCT050
     FM301800 30010KT P6SM VCTS SCT050CB
     FM010000 36005KT P6SM SCT050
     FM010900 VRB04KT 3SM BR SKC=



000
FTUS43 KILX 301046 AAC
TAFDEC
TAF AMD
KDEC 301046Z 3011/0106 26006KT P6SM VCTS SCT070CB
     FM301400 27008KT P6SM SCT040
     FM301800 30010KT P6SM VCTS BKN035CB
     FM010100 35006KT P6SM SCT040=



000
FTUS43 KILX 301045 AAB
TAFCMI
TAF AMD
KCMI 301045Z 3011/0106 24006KT P6SM SCT080
      TEMPO 3011/3013 4SM BR
     FM301400 27008KT P6SM BKN035
     FM301800 29012KT P6SM VCTS BKN035CB
     FM010000 35006KT P6SM SCT040=



000
FTUS43 KILX 300944 AAA
TAFCMI
TAF AMD
KCMI 300944Z 3010/0106 24006KT P6SM SCT080
     FM301400 27008KT P6SM BKN035
     FM301800 29012KT P6SM VCTS BKN035CB
     FM010000 35006KT P6SM SCT040=



000
FTUS43 KILX 300944 AAA
TAFBMI
TAF AMD
KBMI 300944Z 3010/0106 26006KT P6SM SCT080
     FM301300 27009KT P6SM SCT035
     FM301700 30012KT P6SM VCTS BKN035CB
     FM302300 36008KT P6SM SCT040=



000
FTUS43 KILX 300944 AAB
TAFDEC
TAF AMD
KDEC 300944Z 3010/0106 26006KT P6SM SCT070
     FM301400 27008KT P6SM SCT040
     FM301800 30010KT P6SM VCTS BKN035CB
     FM010100 35006KT P6SM SCT040=



000
FTUS43 KILX 300944 AAA
TAFSPI
TAF AMD
KSPI 300944Z 3010/0106 26006KT P6SM SCT080
     FM301400 27008KT P6SM SCT040
     FM301800 30010KT P6SM VCTS BKN035CB
     FM010000 35006KT P6SM SCT040=



000
FTUS43 KILX 300944 AAA
TAFPIA
TAF AMD
KPIA 300944Z 3010/0106 26005KT P6SM SCT070
     FM301300 27006KT P6SM SCT035
     FM301800 30010KT P6SM VCTS BKN035CB
     FM302200 36005KT P6SM SCT040=



000
FTUS43 KILX 300623 AAA
TAFDEC
TAF AMD
KDEC 300623Z 3006/0106 23006KT P6SM VCTS SCT035CB BKN120
     FM301500 27008KT P6SM SCT040
     FM301800 30010KT P6SM VCTS BKN035CB
     FM010100 35006KT P6SM SCT040=



    US Dept of Commerce
    National Oceanic and Atmospheric Administration
    National Weather Service
    1325 East West Highway
    Silver Spring, MD 20910
    Page Author: NWS Internet Services Team
Disclaimer
Information Quality
Credits
Glossary
Privacy Policy
Freedom of Information Act (FOIA)
About Us
Career Opportunities